Time;durP1;ratioP1;P1;durP2;ratioP2;P2;SDS_P1;SDS_P2;PMS_P1;PMS_P2;Temp;Humidity;BMP_temperature;BMP_pressure;BME280_temperature;BME280_humidity;BME280_pressure;Samples;Min_cycle;Max_cycle;Signal;HPM_P1;HPM_P2
2022/07/06 00:01:00;;;;;;;;;;;;;;;;;;5054205;28;19921;-88
2022/07/06 00:03:26;;;;;;;;;;;;;;;;;;5036237;28;19917;-88
2022/07/06 00:05:51;;;;;;;;;;;;;;;;;;5054356;28;19921;-87
2022/07/06 00:08:16;;;;;;;;;;;;;;;;;;5036524;28;20331;-87
2022/07/06 00:10:42;;;;;;;;;;;;;;;;;;5057668;28;19917;-87
2022/07/06 00:13:07;;;;;;;;;;;;;;;;;;5058180;28;19921;-88
2022/07/06 00:15:32;;;;;;;;;;;;;;;;;;5066372;28;19925;-87
2022/07/06 00:17:58;;;;;;;;;;;;;;;;;;5057480;28;19917;-88
2022/07/06 00:20:23;;;;;;;;;;;;;;;;;;5039337;28;19917;-88
2022/07/06 00:22:48;;;;;;;;;;;;;;;;;;5023053;28;19916;-87
2022/07/06 00:25:14;;;;;;;;;;;;;;;;;;5039307;28;19918;-88
2022/07/06 00:27:39;;;;;;;;;;;;;;;;;;5057091;28;19917;-87
2022/07/06 00:30:04;;;;;;;;;;;;;;;;;;5057023;28;20058;-87
2022/07/06 00:32:30;;;;;;;;;;;;;;;;;;5056936;28;19916;-87
2022/07/06 00:34:55;;;;;;;;;;;;;;;;;;5061391;28;19980;-87
2022/07/06 00:37:20;;;;;;;;;;;;;;;;;;5059639;28;19920;-87
2022/07/06 00:39:46;;;;;;;;;;;;;;;;;;5057178;28;19944;-88
2022/07/06 00:42:11;;;;;;;;;;;;;;;;;;5038690;28;19921;-87
2022/07/06 00:44:36;;;;;;;;;;;;;;;;;;5056866;28;20354;-88
2022/07/06 00:47:02;;;;;;;;;;;;;;;;;;5039188;28;19920;-87
2022/07/06 00:52:12;;;;;;;;;;;;;;;;;;5056455;28;20353;-87
2022/07/06 00:54:37;;;;;;;;;;;;;;;;;;5039455;28;19952;-87
2022/07/06 00:57:03;;;;;;;;;;;;;;;;;;5049114;28;19921;-87
2022/07/06 00:59:28;;;;;;;;;;;;;;;;;;5056728;28;20314;-88
2022/07/06 01:01:53;;;;;;;;;;;;;;;;;;5057023;28;19940;-88
2022/07/06 01:04:18;;;;;;;;;;;;;;;;;;5039239;28;19917;-88
2022/07/06 01:06:44;;;;;;;;;;;;;;;;;;5055431;28;19924;-88
2022/07/06 01:09:10;;;;;;;;;;;;;;;;;;5038633;28;19917;-88
2022/07/06 01:11:35;;;;;;;;;;;;;;;;;;5038742;28;19924;-87
2022/07/06 01:14:01;;;;;;;;;;;;;;;;;;5056450;28;19924;-87
2022/07/06 01:16:26;;;;;;;;;;;;;;;;;;5061450;28;20281;-85
2022/07/06 01:18:51;;;;;;;;;;;;;;;;;;5043795;28;19931;-87
2022/07/06 01:21:17;;;;;;;;;;;;;;;;;;5037047;28;19916;-88
2022/07/06 01:23:42;;;;;;;;;;;;;;;;;;5056249;28;19965;-88
2022/07/06 01:26:09;;;;;;;;;;;;;;;;;;5056318;28;20349;-88
2022/07/06 01:28:34;;;;;;;;;;;;;;;;;;5038486;28;19975;-88
2022/07/06 01:30:59;;;;;;;;;;;;;;;;;;5038353;28;19917;-88
2022/07/06 01:33:25;;;;;;;;;;;;;;;;;;5056208;28;19939;-87
2022/07/06 01:35:50;;;;;;;;;;;;;;;;;;5055875;28;20254;-88
2022/07/06 01:38:15;;;;;;;;;;;;;;;;;;5045299;28;19928;-88
2022/07/06 01:40:40;;;;;;;;;;;;;;;;;;5023124;28;19927;-88
2022/07/06 01:43:06;;;;;;;;;;;;;;;;;;5055764;28;19927;-88
2022/07/06 01:45:32;;;;;;;;;;;;;;;;;;5055589;28;19920;-87
2022/07/06 01:47:57;;;;;;;;;;;;;;;;;;5055828;28;19924;-88
2022/07/06 01:50:22;;;;;;;;;;;;;;;;;;5055838;28;19913;-88
2022/07/06 01:52:48;;;;;;;;;;;;;;;;;;5056095;28;19916;-88
2022/07/06 01:55:13;;;;;;;;;;;;;;;;;;5055754;28;19923;-87
2022/07/06 01:57:38;;;;;;;;;;;;;;;;;;5055421;28;19956;-87
2022/07/06 02:00:05;;;;;;;;;;;;;;;;;;5067006;28;19971;-87
2022/07/06 02:02:30;;;;;;;;;;;;;;;;;;5055255;28;20381;-88
2022/07/06 02:04:56;;;;;;;;;;;;;;;;;;5037711;28;19916;-88
2022/07/06 02:07:21;;;;;;;;;;;;;;;;;;5055170;28;19917;-87
2022/07/06 02:09:46;;;;;;;;;;;;;;;;;;5055759;28;20402;-88
2022/07/06 02:12:12;;;;;;;;;;;;;;;;;;5037959;28;20259;-88
2022/07/06 02:14:37;;;;;;;;;;;;;;;;;;5055330;28;20357;-88
2022/07/06 02:17:02;;;;;;;;;;;;;;;;;;5055145;28;19916;-87
2022/07/06 02:19:28;;;;;;;;;;;;;;;;;;5061025;28;19927;-87
2022/07/06 02:21:53;;;;;;;;;;;;;;;;;;5043082;28;19952;-87
2022/07/06 02:24:18;;;;;;;;;;;;;;;;;;5059633;28;20274;-88
2022/07/06 02:26:44;;;;;;;;;;;;;;;;;;5058892;28;19917;-86
2022/07/06 02:29:09;;;;;;;;;;;;;;;;;;5058003;28;20251;-87
2022/07/06 02:31:34;;;;;;;;;;;;;;;;;;5054478;28;20391;-87
2022/07/06 02:34:00;;;;;;;;;;;;;;;;;;5037371;28;19940;-87
2022/07/06 02:36:25;;;;;;;;;;;;;;;;;;5057030;28;20279;-86
2022/07/06 02:38:50;;;;;;;;;;;;;;;;;;5063106;28;19964;-87
2022/07/06 02:41:15;;;;;;;;;;;;;;;;;;5038189;28;19917;-88
2022/07/06 02:43:41;;;;;;;;;;;;;;;;;;5054730;28;20319;-87
2022/07/06 02:46:06;;;;;;;;;;;;;;;;;;5054416;28;19928;-87
2022/07/06 02:48:32;;;;;;;;;;;;;;;;;;5054887;28;19943;-88
2022/07/06 02:50:58;;;;;;;;;;;;;;;;;;5037035;28;19917;-87
2022/07/06 02:53:24;;;;;;;;;;;;;;;;;;5054804;28;20346;-88
2022/07/06 02:55:49;;;;;;;;;;;;;;;;;;5055060;28;19920;-87
2022/07/06 02:58:14;;;;;;;;;;;;;;;;;;5054776;28;19917;-88
2022/07/06 03:00:40;;;;;;;;;;;;;;;;;;5066538;28;19927;-87
2022/07/06 03:03:05;;;;;;;;;;;;;;;;;;5037818;28;19917;-87
2022/07/06 03:05:30;;;;;;;;;;;;;;;;;;5054761;28;19917;-87
2022/07/06 03:07:55;;;;;;;;;;;;;;;;;;5054885;28;20168;-87
2022/07/06 03:10:21;;;;;;;;;;;;;;;;;;5037030;28;20345;-87
2022/07/06 03:12:46;;;;;;;;;;;;;;;;;;5054558;28;19917;-87
2022/07/06 03:15:12;;;;;;;;;;;;;;;;;;5054506;28;20342;-87
2022/07/06 03:17:37;;;;;;;;;;;;;;;;;;5065679;28;19916;-84
2022/07/06 03:20:03;;;;;;;;;;;;;;;;;;5071700;28;19924;-87
2022/07/06 03:22:29;;;;;;;;;;;;;;;;;;5077159;28;19921;-86
2022/07/06 03:24:54;;;;;;;;;;;;;;;;;;5058664;28;19923;-86
2022/07/06 03:27:19;;;;;;;;;;;;;;;;;;5054244;28;19971;-87
2022/07/06 03:29:45;;;;;;;;;;;;;;;;;;5054504;28;19924;-87
2022/07/06 03:32:10;;;;;;;;;;;;;;;;;;5054621;28;19917;-86
2022/07/06 03:34:35;;;;;;;;;;;;;;;;;;5054322;28;19917;-88
2022/07/06 03:37:01;;;;;;;;;;;;;;;;;;5036576;28;19917;-87
2022/07/06 03:39:26;;;;;;;;;;;;;;;;;;5054514;28;19921;-86
2022/07/06 03:41:51;;;;;;;;;;;;;;;;;;5065906;28;19904;-87
2022/07/06 03:44:17;;;;;;;;;;;;;;;;;;5038701;28;19921;-87
2022/07/06 03:46:42;;;;;;;;;;;;;;;;;;5040068;28;19963;-87
2022/07/06 03:49:08;;;;;;;;;;;;;;;;;;5057954;28;20004;-86
2022/07/06 03:51:33;;;;;;;;;;;;;;;;;;5058099;28;19923;-86
2022/07/06 03:53:58;;;;;;;;;;;;;;;;;;5058039;28;20242;-86
2022/07/06 03:56:32;;;;;;;;;;;;;;;;;;5058067;28;19924;-87
2022/07/06 03:58:57;;;;;;;;;;;;;;;;;;5057545;28;19917;-87
2022/07/06 04:01:23;;;;;;;;;;;;;;;;;;5041914;28;19913;-87
2022/07/06 04:03:48;;;;;;;;;;;;;;;;;;5032122;28;20220;-86
2022/07/06 04:06:14;;;;;;;;;;;;;;;;;;5023520;28;19917;-86
2022/07/06 04:08:39;;;;;;;;;;;;;;;;;;5057890;28;19916;-86
2022/07/06 04:11:04;;;;;;;;;;;;;;;;;;5057787;28;20224;-86
2022/07/06 04:13:30;;;;;;;;;;;;;;;;;;5057517;28;19944;-86
2022/07/06 04:15:55;;;;;;;;;;;;;;;;;;5057789;28;20255;-86
2022/07/06 04:18:20;;;;;;;;;;;;;;;;;;5057972;28;20005;-87
2022/07/06 04:20:45;;;;;;;;;;;;;;;;;;5039777;28;20020;-86
2022/07/06 04:23:11;;;;;;;;;;;;;;;;;;5067298;28;19921;-87
2022/07/06 04:25:36;;;;;;;;;;;;;;;;;;5058757;28;19917;-86
2022/07/06 04:28:01;;;;;;;;;;;;;;;;;;5057539;28;20361;-86
2022/07/06 04:30:27;;;;;;;;;;;;;;;;;;5057461;28;20326;-87
2022/07/06 04:32:52;;;;;;;;;;;;;;;;;;5057387;28;20270;-87
2022/07/06 04:35:18;;;;;;;;;;;;;;;;;;5057412;28;19917;-87
2022/07/06 04:37:45;;;;;;;;;;;;;;;;;;5057284;28;19974;-86
2022/07/06 04:40:11;;;;;;;;;;;;;;;;;;5057184;28;19952;-87
2022/07/06 04:42:37;;;;;;;;;;;;;;;;;;5057140;28;19971;-87
2022/07/06 04:45:02;;;;;;;;;;;;;;;;;;5058283;28;19909;-85
2022/07/06 04:47:27;;;;;;;;;;;;;;;;;;5063102;28;19970;-87
2022/07/06 04:49:53;;;;;;;;;;;;;;;;;;5056736;28;20258;-87
2022/07/06 04:52:18;;;;;;;;;;;;;;;;;;5056771;28;20339;-87
2022/07/06 04:54:43;;;;;;;;;;;;;;;;;;5057161;28;19917;-87
2022/07/06 04:57:09;;;;;;;;;;;;;;;;;;5056843;28;19917;-88
2022/07/06 04:59:34;;;;;;;;;;;;;;;;;;5039434;28;19917;-86
2022/07/06 05:01:59;;;;;;;;;;;;;;;;;;5057364;28;19923;-87
2022/07/06 05:04:25;;;;;;;;;;;;;;;;;;5063465;28;19948;-87
2022/07/06 05:06:50;;;;;;;;;;;;;;;;;;5061886;28;19970;-87
2022/07/06 05:09:15;;;;;;;;;;;;;;;;;;5060199;28;19923;-80
2022/07/06 05:11:40;;;;;;;;;;;;;;;;;;5056635;28;19960;-80
2022/07/06 05:14:06;;;;;;;;;;;;;;;;;;5058169;28;19967;-80
2022/07/06 05:16:31;;;;;;;;;;;;;;;;;;5057354;28;19948;-81
2022/07/06 05:18:57;;;;;;;;;;;;;;;;;;5039999;28;19980;-81
2022/07/06 05:21:22;;;;;;;;;;;;;;;;;;5022503;28;19971;-82
2022/07/06 05:23:47;;;;;;;;;;;;;;;;;;5056972;28;20030;-81
2022/07/06 05:26:13;;;;;;;;;;;;;;;;;;5067057;28;19921;-81
2022/07/06 05:28:38;;;;;;;;;;;;;;;;;;5056932;28;19917;-82
2022/07/06 05:31:03;;;;;;;;;;;;;;;;;;5039013;28;19920;-81
2022/07/06 05:33:29;;;;;;;;;;;;;;;;;;5056820;28;20368;-81
2022/07/06 05:35:55;;;;;;;;;;;;;;;;;;5038623;28;19921;-81
2022/07/06 05:38:20;;;;;;;;;;;;;;;;;;5056899;28;19921;-81
2022/07/06 05:40:46;;;;;;;;;;;;;;;;;;5056249;28;19917;-82
2022/07/06 05:43:11;;;;;;;;;;;;;;;;;;5057939;28;19927;-83
2022/07/06 05:45:36;;;;;;;;;;;;;;;;;;5025503;28;19996;-82
2022/07/06 05:50:45;;;;;;;;;;;;;;;;;;5057433;28;19955;-82
2022/07/06 05:53:10;;;;;;;;;;;;;;;;;;5056887;28;19916;-82
2022/07/06 05:55:36;;;;;;;;;;;;;;;;;;5056797;28;20220;-81
2022/07/06 05:58:01;;;;;;;;;;;;;;;;;;5056913;28;19917;-82
2022/07/06 06:00:26;;;;;;;;;;;;;;;;;;5056243;28;19931;-81
2022/07/06 06:02:52;;;;;;;;;;;;;;;;;;5038000;28;19924;-81
2022/07/06 06:05:17;;;;;;;;;;;;;;;;;;5041011;28;19908;-82
2022/07/06 06:07:43;;;;;;;;;;;;;;;;;;5061949;28;19912;-82
2022/07/06 06:10:09;;;;;;;;;;;;;;;;;;5037373;28;19917;-82
2022/07/06 06:12:34;;;;;;;;;;;;;;;;;;5055833;28;20285;-82
2022/07/06 06:15:00;;;;;;;;;;;;;;;;;;5055687;28;19916;-82
2022/07/06 06:17:25;;;;;;;;;;;;;;;;;;5055817;28;19917;-82
2022/07/06 06:19:51;;;;;;;;;;;;;;;;;;5056957;28;19913;-82
2022/07/06 06:22:16;;;;;;;;;;;;;;;;;;5027057;28;19917;-82
2022/07/06 06:24:42;;;;;;;;;;;;;;;;;;5055711;28;19966;-82
2022/07/06 06:27:07;;;;;;;;;;;;;;;;;;5064874;28;19954;-81
2022/07/06 06:29:32;;;;;;;;;;;;;;;;;;5056940;28;19960;-83
2022/07/06 06:31:58;;;;;;;;;;;;;;;;;;5055670;28;19913;-82
2022/07/06 06:34:23;;;;;;;;;;;;;;;;;;5055386;28;19966;-81
2022/07/06 06:36:48;;;;;;;;;;;;;;;;;;5056487;28;20011;-81
2022/07/06 06:39:14;;;;;;;;;;;;;;;;;;5059863;28;19912;-82
2022/07/06 06:41:39;;;;;;;;;;;;;;;;;;5055407;28;20392;-81
2022/07/06 06:44:04;;;;;;;;;;;;;;;;;;5056193;28;19925;-82
2022/07/06 06:46:30;;;;;;;;;;;;;;;;;;5064061;28;19905;-81
2022/07/06 06:48:56;;;;;;;;;;;;;;;;;;5058775;28;19917;-81
2022/07/06 06:51:21;;;;;;;;;;;;;;;;;;5055535;28;20000;-82
2022/07/06 06:53:47;;;;;;;;;;;;;;;;;;5055040;28;19917;-81
2022/07/06 06:56:12;;;;;;;;;;;;;;;;;;5054849;28;20312;-82
2022/07/06 06:58:37;;;;;;;;;;;;;;;;;;5055136;28;20240;-78
2022/07/06 07:01:04;;;;;;;;;;;;;;;;;;5020420;28;19991;-80
2022/07/06 07:03:30;;;;;;;;;;;;;;;;;;5055313;28;20330;-79
2022/07/06 07:05:55;;;;;;;;;;;;;;;;;;5057803;28;19912;-79
2022/07/06 07:08:21;;;;;;;;;;;;;;;;;;5062222;28;20254;-80
2022/07/06 07:10:46;;;;;;;;;;;;;;;;;;5055234;28;19913;-79
2022/07/06 07:13:11;;;;;;;;;;;;;;;;;;5020070;28;19917;-80
2022/07/06 07:15:37;;;;;;;;;;;;;;;;;;5056069;28;19916;-81
2022/07/06 07:18:02;;;;;;;;;;;;;;;;;;5055219;28;19913;-80
2022/07/06 07:20:29;;;;;;;;;;;;;;;;;;5059259;28;19917;-79
2022/07/06 07:22:55;;;;;;;;;;;;;;;;;;5058299;28;19917;-80
2022/07/06 07:25:21;;;;;;;;;;;;;;;;;;5041843;28;19928;-80
2022/07/06 07:27:46;;;;;;;;;;;;;;;;;;5068137;28;19928;-81
2022/07/06 07:30:12;;;;;;;;;;;;;;;;;;5042033;28;20010;-79
2022/07/06 07:32:37;;;;;;;;;;;;;;;;;;5041593;28;19917;-79
2022/07/06 07:35:03;;;;;;;;;;;;;;;;;;5041642;28;19924;-79
2022/07/06 07:37:28;;;;;;;;;;;;;;;;;;5058833;28;19917;-79
2022/07/06 07:39:53;;;;;;;;;;;;;;;;;;5059611;28;19917;-80
2022/07/06 07:42:19;;;;;;;;;;;;;;;;;;5038566;28;19971;-80
2022/07/06 07:44:44;;;;;;;;;;;;;;;;;;5058408;28;19917;-79
2022/07/06 07:47:09;;;;;;;;;;;;;;;;;;5066738;28;19917;-80
2022/07/06 07:49:35;;;;;;;;;;;;;;;;;;5063822;28;20381;-80
2022/07/06 07:52:00;;;;;;;;;;;;;;;;;;5041496;28;19924;-79
2022/07/06 07:54:25;;;;;;;;;;;;;;;;;;5058430;28;20243;-81
2022/07/06 07:56:51;;;;;;;;;;;;;;;;;;5057731;28;19924;-81
2022/07/06 07:59:16;;;;;;;;;;;;;;;;;;5058462;28;20301;-78
2022/07/06 08:01:41;;;;;;;;;;;;;;;;;;5058942;28;20327;-80
2022/07/06 08:04:07;;;;;;;;;;;;;;;;;;5040428;28;19917;-80
2022/07/06 08:06:32;;;;;;;;;;;;;;;;;;5058922;28;20374;-79
2022/07/06 08:08:58;;;;;;;;;;;;;;;;;;5068244;28;20251;-80
2022/07/06 08:11:23;;;;;;;;;;;;;;;;;;5058177;28;19955;-79
2022/07/06 08:13:48;;;;;;;;;;;;;;;;;;5042079;28;19924;-78
2022/07/06 08:16:14;;;;;;;;;;;;;;;;;;5039778;28;19917;-79
2022/07/06 08:18:39;;;;;;;;;;;;;;;;;;5039864;28;19974;-79
2022/07/06 08:21:05;;;;;;;;;;;;;;;;;;5057459;28;19974;-79
2022/07/06 08:23:30;;;;;;;;;;;;;;;;;;5057750;28;20320;-78
2022/07/06 08:25:56;;;;;;;;;;;;;;;;;;5058402;28;19916;-79
2022/07/06 08:28:21;;;;;;;;;;;;;;;;;;5049126;28;19980;-79
2022/07/06 08:30:47;;;;;;;;;;;;;;;;;;5041137;28;20302;-78
2022/07/06 08:33:12;;;;;;;;;;;;;;;;;;5024747;28;19917;-78
2022/07/06 08:35:38;;;;;;;;;;;;;;;;;;5058142;28;19917;-79
2022/07/06 08:38:03;;;;;;;;;;;;;;;;;;5059559;28;19946;-79
2022/07/06 08:40:31;;;;;;;;;;;;;;;;;;5058772;28;19976;-80
2022/07/06 08:42:56;;;;;;;;;;;;;;;;;;5058682;28;20238;-81
2022/07/06 08:45:21;;;;;;;;;;;;;;;;;;5040940;28;19917;-80
2022/07/06 08:47:47;;;;;;;;;;;;;;;;;;5061533;28;19920;-79
2022/07/06 08:50:14;;;;;;;;;;;;;;;;;;5044881;28;20231;-79
2022/07/06 08:52:40;;;;;;;;;;;;;;;;;;5040677;28;19988;-80
2022/07/06 08:55:05;;;;;;;;;;;;;;;;;;5057524;28;20329;-79
2022/07/06 08:57:31;;;;;;;;;;;;;;;;;;5057084;28;19921;-81
2022/07/06 08:59:56;;;;;;;;;;;;;;;;;;5039164;28;19963;-82
2022/07/06 09:02:23;;;;;;;;;;;;;;;;;;5056844;28;20019;-81
2022/07/06 09:04:48;;;;;;;;;;;;;;;;;;5038465;28;19917;-82
2022/07/06 09:07:14;;;;;;;;;;;;;;;;;;5056867;28;19917;-82
2022/07/06 09:09:39;;;;;;;;;;;;;;;;;;5032630;28;19927;-82
2022/07/06 09:12:05;;;;;;;;;;;;;;;;;;5039122;28;20019;-81
2022/07/06 09:14:30;;;;;;;;;;;;;;;;;;5039061;28;19953;-80
2022/07/06 09:17:03;;;;;;;;;;;;;;;;;;5057114;28;19928;-80
2022/07/06 09:19:28;;;;;;;;;;;;;;;;;;5057025;28;19939;-81
2022/07/06 09:21:54;;;;;;;;;;;;;;;;;;5039064;28;19917;-82
2022/07/06 09:24:20;;;;;;;;;;;;;;;;;;5022242;28;20306;-82
2022/07/06 09:26:45;;;;;;;;;;;;;;;;;;5056402;28;20242;-80
2022/07/06 09:29:11;;;;;;;;;;;;;;;;;;5043552;28;19996;-78
2022/07/06 09:31:36;;;;;;;;;;;;;;;;;;5057632;28;19982;-79
2022/07/06 09:34:05;;;;;;;;;;;;;;;;;;5056318;28;20319;-80
2022/07/06 09:36:42;;;;;;;;;;;;;;;;;;5038999;28;20296;-79
2022/07/06 09:39:15;;;;;;;;;;;;;;;;;;5056353;28;19936;-79
2022/07/06 09:41:40;;;;;;;;;;;;;;;;;;5054918;28;20011;-80
2022/07/06 09:44:05;;;;;;;;;;;;;;;;;;5056243;28;19971;-80
2022/07/06 09:46:37;;;;;;;;;;;;;;;;;;5038191;28;19979;-80
2022/07/06 09:49:02;;;;;;;;;;;;;;;;;;5041770;28;19905;-80
2022/07/06 09:51:30;;;;;;;;;;;;;;;;;;5046984;28;20385;-80
2022/07/06 09:53:57;;;;;;;;;;;;;;;;;;5058136;28;19916;-80
2022/07/06 09:56:34;;;;;;;;;;;;;;;;;;5055862;28;20338;-80
2022/07/06 09:59:00;;;;;;;;;;;;;;;;;;5055770;28;19917;-81
2022/07/06 10:01:26;;;;;;;;;;;;;;;;;;5055585;28;20209;-80
2022/07/06 10:03:53;;;;;;;;;;;;;;;;;;5038442;28;20325;-81
2022/07/06 10:06:18;;;;;;;;;;;;;;;;;;5055531;28;19916;-81
2022/07/06 10:08:43;;;;;;;;;;;;;;;;;;5053358;28;19959;-82
2022/07/06 10:11:14;;;;;;;;;;;;;;;;;;5048854;28;19921;-80
2022/07/06 10:13:40;;;;;;;;;;;;;;;;;;5056065;28;19913;-82
2022/07/06 10:16:05;;;;;;;;;;;;;;;;;;5037518;28;19921;-81
2022/07/06 10:18:31;;;;;;;;;;;;;;;;;;5055307;28;19924;-81
2022/07/06 10:20:56;;;;;;;;;;;;;;;;;;5054865;28;19917;-81
2022/07/06 10:23:21;;;;;;;;;;;;;;;;;;5037991;28;20322;-80
2022/07/06 10:25:47;;;;;;;;;;;;;;;;;;5020336;28;19939;-81
2022/07/06 10:28:14;;;;;;;;;;;;;;;;;;5037437;28;19921;-80
2022/07/06 10:30:40;;;;;;;;;;;;;;;;;;5061242;28;19909;-79
2022/07/06 10:33:05;;;;;;;;;;;;;;;;;;5041346;28;19917;-81
2022/07/06 10:35:31;;;;;;;;;;;;;;;;;;5037722;28;19923;-81
2022/07/06 10:38:03;;;;;;;;;;;;;;;;;;5037358;28;19951;-82
2022/07/06 10:43:17;;;;;;;;;;;;;;;;;;5040203;28;19928;-82
2022/07/06 10:45:45;;;;;;;;;;;;;;;;;;5035873;28;19921;-81
2022/07/06 10:48:15;;;;;;;;;;;;;;;;;;5035864;28;19930;-80
2022/07/06 10:50:41;;;;;;;;;;;;;;;;;;5056162;28;20039;-82
2022/07/06 10:53:10;;;;;;;;;;;;;;;;;;5042748;28;20250;-82
2022/07/06 10:55:40;;;;;;;;;;;;;;;;;;5036503;28;19921;-82
2022/07/06 10:58:06;;;;;;;;;;;;;;;;;;5054301;28;19921;-81
2022/07/06 11:00:50;;;;;;;;;;;;;;;;;;5053066;28;19917;-81
2022/07/06 11:03:31;;;;;;;;;;;;;;;;;;5053168;28;19917;-82
2022/07/06 11:06:00;;;;;;;;;;;;;;;;;;5053417;28;20333;-81
2022/07/06 11:08:44;;;;;;;;;;;;;;;;;;5052967;28;20002;-82
2022/07/06 11:11:16;;;;;;;;;;;;;;;;;;5037509;28;19919;-81
2022/07/06 11:13:42;;;;;;;;;;;;;;;;;;5043646;28;19924;-81
2022/07/06 11:16:08;;;;;;;;;;;;;;;;;;5054152;28;19913;-84
2022/07/06 11:18:40;;;;;;;;;;;;;;;;;;5054349;28;19982;-82
2022/07/06 11:21:19;;;;;;;;;;;;;;;;;;5036522;28;19917;-83
2022/07/06 11:23:48;;;;;;;;;;;;;;;;;;5054362;28;19923;-83
2022/07/06 11:26:13;;;;;;;;;;;;;;;;;;5054420;28;19913;-82
2022/07/06 11:28:39;;;;;;;;;;;;;;;;;;5054466;28;20007;-83
2022/07/06 11:31:04;;;;;;;;;;;;;;;;;;5054287;28;19920;-83
2022/07/06 11:33:29;;;;;;;;;;;;;;;;;;5062647;28;19920;-83
2022/07/06 11:36:13;;;;;;;;;;;;;;;;;;5054347;28;20342;-82
2022/07/06 11:38:39;;;;;;;;;;;;;;;;;;5054077;28;19951;-81
2022/07/06 11:41:04;;;;;;;;;;;;;;;;;;5054680;28;19952;-81
2022/07/06 11:43:30;;;;;;;;;;;;;;;;;;5053551;28;20319;-79
2022/07/06 11:45:55;;;;;;;;;;;;;;;;;;5054034;28;19917;-80
2022/07/06 11:48:20;;;;;;;;;;;;;;;;;;5053909;28;19932;-82
2022/07/06 11:51:02;;;;;;;;;;;;;;;;;;5054229;28;20238;-80
2022/07/06 11:53:27;;;;;;;;;;;;;;;;;;5061552;28;19916;-79
2022/07/06 11:55:53;;;;;;;;;;;;;;;;;;5055232;28;19913;-80
2022/07/06 11:58:22;;;;;;;;;;;;;;;;;;5035985;28;19917;-80
2022/07/06 12:01:07;;;;;;;;;;;;;;;;;;5036125;28;20330;-81
2022/07/06 12:03:34;;;;;;;;;;;;;;;;;;5053521;28;19916;-81
2022/07/06 12:06:03;;;;;;;;;;;;;;;;;;5057027;28;19920;-82
2022/07/06 12:08:33;;;;;;;;;;;;;;;;;;5057400;28;20565;-83
2022/07/06 12:10:59;;;;;;;;;;;;;;;;;;5039300;28;19913;-82
2022/07/06 12:13:24;;;;;;;;;;;;;;;;;;5060931;28;19925;-81
2022/07/06 12:15:50;;;;;;;;;;;;;;;;;;5060193;28;19917;-83
2022/07/06 12:18:15;;;;;;;;;;;;;;;;;;5056254;28;19913;-82
2022/07/06 12:20:41;;;;;;;;;;;;;;;;;;5038141;28;19916;-83
2022/07/06 12:23:07;;;;;;;;;;;;;;;;;;5038092;28;19967;-82
2022/07/06 12:25:33;;;;;;;;;;;;;;;;;;5056712;28;19916;-83
2022/07/06 12:27:58;;;;;;;;;;;;;;;;;;5056741;28;19923;-85
2022/07/06 12:30:23;;;;;;;;;;;;;;;;;;5057329;28;20257;-83
2022/07/06 12:33:07;;;;;;;;;;;;;;;;;;5057611;28;20291;-82
2022/07/06 12:35:32;;;;;;;;;;;;;;;;;;5067563;28;19916;-83
2022/07/06 12:37:58;;;;;;;;;;;;;;;;;;5057398;28;19917;-82
2022/07/06 12:40:25;;;;;;;;;;;;;;;;;;5057550;28;19916;-82
2022/07/06 12:42:50;;;;;;;;;;;;;;;;;;5038950;28;19944;-82
2022/07/06 12:45:16;;;;;;;;;;;;;;;;;;5039182;28;20314;-82
2022/07/06 12:47:42;;;;;;;;;;;;;;;;;;5039057;28;19913;-82
2022/07/06 12:50:09;;;;;;;;;;;;;;;;;;5056750;28;19924;-82
2022/07/06 12:52:35;;;;;;;;;;;;;;;;;;5057853;28;19920;-83
2022/07/06 12:55:01;;;;;;;;;;;;;;;;;;5062508;28;19919;-83
2022/07/06 12:57:27;;;;;;;;;;;;;;;;;;5060554;28;19917;-83
2022/07/06 12:59:52;;;;;;;;;;;;;;;;;;5056655;28;19921;-83
2022/07/06 13:02:21;;;;;;;;;;;;;;;;;;5056607;28;19948;-83
2022/07/06 13:04:59;;;;;;;;;;;;;;;;;;5057129;28;19921;-83
2022/07/06 13:07:25;;;;;;;;;;;;;;;;;;5057090;28;19917;-83
2022/07/06 13:09:51;;;;;;;;;;;;;;;;;;5038711;28;19924;-84
2022/07/06 13:12:16;;;;;;;;;;;;;;;;;;5056672;28;19917;-83
2022/07/06 13:14:41;;;;;;;;;;;;;;;;;;5040363;28;20223;-83
2022/07/06 13:17:07;;;;;;;;;;;;;;;;;;5065055;28;20012;-81
2022/07/06 13:19:32;;;;;;;;;;;;;;;;;;5057238;28;19952;-84
2022/07/06 13:21:58;;;;;;;;;;;;;;;;;;5056678;28;19963;-83
2022/07/06 13:24:23;;;;;;;;;;;;;;;;;;5056120;28;19924;-83
2022/07/06 13:26:48;;;;;;;;;;;;;;;;;;5056438;28;19917;-83
2022/07/06 13:29:14;;;;;;;;;;;;;;;;;;5056285;28;19916;-81
2022/07/06 13:31:39;;;;;;;;;;;;;;;;;;5055977;28;19956;-83
2022/07/06 13:34:05;;;;;;;;;;;;;;;;;;5056471;28;19916;-83
2022/07/06 13:36:30;;;;;;;;;;;;;;;;;;5063422;28;19905;-83
2022/07/06 13:38:56;;;;;;;;;;;;;;;;;;5059220;28;19923;-84
2022/07/06 13:41:21;;;;;;;;;;;;;;;;;;5056101;28;19917;-84
2022/07/06 13:43:46;;;;;;;;;;;;;;;;;;5056066;28;20054;-83
2022/07/06 13:46:12;;;;;;;;;;;;;;;;;;5056003;28;19967;-83
2022/07/06 13:48:37;;;;;;;;;;;;;;;;;;5055600;28;20346;-83
2022/07/06 13:51:02;;;;;;;;;;;;;;;;;;5055847;28;19917;-81
2022/07/06 13:53:28;;;;;;;;;;;;;;;;;;5055533;28;19917;-83
2022/07/06 13:55:53;;;;;;;;;;;;;;;;;;5039095;28;19917;-82
2022/07/06 13:58:18;;;;;;;;;;;;;;;;;;5065064;28;20015;-82
2022/07/06 14:00:44;;;;;;;;;;;;;;;;;;5056310;28;19917;-82
2022/07/06 14:03:09;;;;;;;;;;;;;;;;;;5055750;28;20081;-81
2022/07/06 14:05:35;;;;;;;;;;;;;;;;;;5037944;28;19920;-82
2022/07/06 14:08:00;;;;;;;;;;;;;;;;;;5055379;28;19923;-82
2022/07/06 14:10:26;;;;;;;;;;;;;;;;;;5055529;28;19943;-81
2022/07/06 14:12:51;;;;;;;;;;;;;;;;;;5037550;28;19917;-82
2022/07/06 14:15:17;;;;;;;;;;;;;;;;;;5055738;28;20357;-83
2022/07/06 14:17:42;;;;;;;;;;;;;;;;;;5064966;28;19944;-81
2022/07/06 14:20:08;;;;;;;;;;;;;;;;;;5038348;28;20358;-82
2022/07/06 14:22:33;;;;;;;;;;;;;;;;;;5055203;28;20297;-83
2022/07/06 14:24:58;;;;;;;;;;;;;;;;;;5055546;28;20369;-82
2022/07/06 14:27:24;;;;;;;;;;;;;;;;;;5055314;28;19916;-82
2022/07/06 14:29:49;;;;;;;;;;;;;;;;;;5037637;28;19948;-82
2022/07/06 14:32:14;;;;;;;;;;;;;;;;;;5037341;28;19924;-82
2022/07/06 14:34:40;;;;;;;;;;;;;;;;;;5054919;28;19921;-82
2022/07/06 14:37:05;;;;;;;;;;;;;;;;;;5054653;28;19917;-83
2022/07/06 14:39:31;;;;;;;;;;;;;;;;;;5063450;28;20365;-82
2022/07/06 14:41:56;;;;;;;;;;;;;;;;;;5055029;28;20293;-83
2022/07/06 14:44:21;;;;;;;;;;;;;;;;;;5054995;28;19976;-82
2022/07/06 14:46:47;;;;;;;;;;;;;;;;;;5054948;28;19924;-83
2022/07/06 14:49:12;;;;;;;;;;;;;;;;;;5037252;28;19921;-83
2022/07/06 14:51:37;;;;;;;;;;;;;;;;;;5054880;28;19921;-83
2022/07/06 14:54:03;;;;;;;;;;;;;;;;;;5056036;28;20239;-82
2022/07/06 14:56:28;;;;;;;;;;;;;;;;;;5037337;28;20281;-83
2022/07/06 14:58:53;;;;;;;;;;;;;;;;;;5044189;28;19951;-82
2022/07/06 15:01:19;;;;;;;;;;;;;;;;;;5055801;28;19917;-83
2022/07/06 15:03:44;;;;;;;;;;;;;;;;;;5054910;28;19940;-83
2022/07/06 15:06:09;;;;;;;;;;;;;;;;;;5054581;28;20349;-83
2022/07/06 15:08:34;;;;;;;;;;;;;;;;;;5054662;28;19924;-82
2022/07/06 15:11:00;;;;;;;;;;;;;;;;;;5054690;28;19924;-82
2022/07/06 15:13:25;;;;;;;;;;;;;;;;;;5055152;28;19924;-82
2022/07/06 15:15:51;;;;;;;;;;;;;;;;;;5054593;28;19916;-83
2022/07/06 15:18:16;;;;;;;;;;;;;;;;;;5037748;28;19916;-82
2022/07/06 15:20:42;;;;;;;;;;;;;;;;;;5064333;28;19917;-82
2022/07/06 15:23:07;;;;;;;;;;;;;;;;;;5054765;28;19917;-82
2022/07/06 15:25:32;;;;;;;;;;;;;;;;;;5054775;28;20569;-83
2022/07/06 15:27:58;;;;;;;;;;;;;;;;;;5036908;28;19916;-83
2022/07/06 15:30:24;;;;;;;;;;;;;;;;;;5054586;28;19924;-83
2022/07/06 15:32:49;;;;;;;;;;;;;;;;;;5054749;28;19916;-82
2022/07/06 15:35:15;;;;;;;;;;;;;;;;;;5054304;28;20333;-83
2022/07/06 15:37:41;;;;;;;;;;;;;;;;;;5054583;28;20253;-83
2022/07/06 15:40:14;;;;;;;;;;;;;;;;;;5044739;28;19940;-83
2022/07/06 15:42:40;;;;;;;;;;;;;;;;;;5059847;28;19987;-82
2022/07/06 15:45:06;;;;;;;;;;;;;;;;;;5058360;28;20298;-82
2022/07/06 15:47:31;;;;;;;;;;;;;;;;;;5058051;28;19913;-83
2022/07/06 15:49:56;;;;;;;;;;;;;;;;;;5058122;28;19917;-83
2022/07/06 15:52:22;;;;;;;;;;;;;;;;;;5057879;28;19917;-82
2022/07/06 15:54:47;;;;;;;;;;;;;;;;;;5058377;28;19935;-82
2022/07/06 15:57:12;;;;;;;;;;;;;;;;;;5058307;28;19917;-82
2022/07/06 15:59:38;;;;;;;;;;;;;;;;;;5058100;28;19912;-82
2022/07/06 16:02:03;;;;;;;;;;;;;;;;;;5066759;28;19917;-83
2022/07/06 16:04:29;;;;;;;;;;;;;;;;;;5057947;28;19917;-83
2022/07/06 16:06:54;;;;;;;;;;;;;;;;;;5058073;28;19931;-82
2022/07/06 16:09:19;;;;;;;;;;;;;;;;;;5040114;28;20015;-83
2022/07/06 16:11:45;;;;;;;;;;;;;;;;;;5057827;28;20020;-82
2022/07/06 16:14:10;;;;;;;;;;;;;;;;;;5057317;28;19978;-82
2022/07/06 16:16:37;;;;;;;;;;;;;;;;;;5057926;28;19974;-82
2022/07/06 16:19:02;;;;;;;;;;;;;;;;;;5057437;28;19923;-83
2022/07/06 16:21:28;;;;;;;;;;;;;;;;;;5064092;28;19925;-82
2022/07/06 16:23:53;;;;;;;;;;;;;;;;;;5060728;28;20011;-84
2022/07/06 16:26:18;;;;;;;;;;;;;;;;;;5057522;28;19913;-83
2022/07/06 16:28:44;;;;;;;;;;;;;;;;;;5057506;28;20340;-83
2022/07/06 16:31:09;;;;;;;;;;;;;;;;;;5057699;28;19917;-82
2022/07/06 16:33:36;;;;;;;;;;;;;;;;;;5057112;28;19936;-82
2022/07/06 16:36:05;;;;;;;;;;;;;;;;;;5057163;28;20258;-83
2022/07/06 16:38:30;;;;;;;;;;;;;;;;;;5057007;28;20283;-83
2022/07/06 16:40:55;;;;;;;;;;;;;;;;;;5057250;28;20019;-85
2022/07/06 16:43:20;;;;;;;;;;;;;;;;;;5067767;28;19925;-83
2022/07/06 16:45:46;;;;;;;;;;;;;;;;;;5057295;28;20346;-83